createdAt,value
2018-06-15T00:01:52.334Z,32.20
2018-06-15T00:04:26.900Z,32.20
2018-06-15T00:14:40.997Z,32.40
2018-06-15T00:17:15.157Z,32.40
2018-06-15T00:19:49.290Z,32.50
2018-06-15T00:22:23.111Z,32.50
2018-06-15T00:27:30.278Z,32.50
2018-06-15T00:30:05.234Z,32.50
2018-06-15T00:32:39.380Z,32.60
2018-06-15T00:35:13.289Z,32.60
2018-06-15T00:37:47.443Z,32.60
2018-06-15T00:42:54.200Z,32.70
2018-06-15T00:48:00.365Z,32.70
2018-06-15T00:50:34.114Z,32.70
2018-06-15T00:55:41.706Z,32.80
2018-06-15T00:58:15.625Z,32.80
2018-06-15T01:00:49.581Z,32.90
2018-06-15T01:03:23.683Z,33.00
2018-06-15T01:05:58.748Z,33.00
2018-06-15T01:08:32.597Z,33.00
2018-06-15T01:11:07.400Z,33.20
2018-06-15T01:13:41.551Z,33.20
2018-06-15T01:18:49.444Z,33.40
2018-06-15T01:21:23.776Z,33.40
2018-06-15T01:23:58.097Z,33.50
2018-06-15T01:26:32.380Z,33.60
2018-06-15T01:29:09.275Z,33.60
2018-06-15T01:31:43.308Z,33.70
2018-06-15T01:34:17.567Z,33.80
2018-06-15T01:36:51.443Z,33.80
2018-06-15T01:41:58.674Z,33.90
2018-06-15T01:44:32.733Z,34.00
2018-06-15T01:49:39.327Z,34.10
2018-06-15T01:57:19.199Z,34.20
2018-06-15T01:59:52.709Z,34.20
2018-06-15T02:07:32.305Z,34.40
2018-06-15T02:10:06.910Z,34.50
2018-06-15T02:12:41.077Z,34.50
2018-06-15T02:15:15.104Z,34.60
2018-06-15T02:17:49.479Z,34.70
2018-06-15T02:20:23.613Z,34.70
2018-06-15T02:22:59.574Z,34.80
2018-06-15T02:25:33.764Z,34.80
2018-06-15T02:28:07.319Z,34.90
2018-06-15T02:30:43.400Z,34.90
2018-06-15T02:33:17.145Z,34.90
2018-06-15T02:35:51.124Z,35.00
2018-06-15T02:38:25.097Z,35.10
2018-06-15T02:40:59.678Z,35.10
2018-06-15T02:43:33.590Z,35.10
2018-06-15T02:48:40.671Z,35.20
2018-06-15T02:51:14.689Z,35.20
2018-06-15T02:53:48.692Z,35.30
2018-06-15T02:56:22.721Z,35.30
2018-06-15T02:58:56.864Z,35.40
2018-06-15T03:01:30.928Z,35.40
2018-06-15T03:04:05.208Z,35.40
2018-06-15T03:06:39.317Z,35.50
2018-06-15T03:09:13.636Z,35.50
2018-06-15T03:11:47.358Z,35.70
2018-06-15T03:14:21.017Z,35.80
2018-06-15T03:16:56.333Z,35.80
2018-06-15T03:19:30.162Z,35.90
2018-06-15T03:22:04.645Z,35.90
2018-06-15T03:24:38.682Z,35.90
2018-06-15T03:27:12.481Z,36.00
2018-06-15T03:29:46.607Z,35.90
2018-06-15T03:32:20.609Z,35.90
2018-06-15T03:40:00.904Z,35.90
2018-06-15T03:42:36.449Z,35.90
2018-06-15T03:45:11.317Z,35.90
2018-06-15T03:47:46.155Z,35.90
2018-06-15T03:50:21.372Z,35.90
2018-06-15T03:52:55.224Z,35.80
2018-06-15T03:55:30.546Z,35.80
2018-06-15T03:58:04.591Z,35.80
2018-06-15T04:00:38.474Z,35.80
2018-06-15T04:03:12.175Z,35.80
2018-06-15T04:05:47.127Z,35.80
2018-06-15T04:08:21.514Z,35.80
2018-06-15T04:10:55.649Z,35.90
2018-06-15T04:13:30.145Z,35.90
2018-06-15T04:16:04.264Z,35.90
2018-06-15T04:18:38.114Z,36.00
2018-06-15T04:21:13.011Z,36.10
2018-06-15T04:23:46.680Z,36.10
2018-06-15T04:26:20.658Z,36.10
2018-06-15T04:28:54.663Z,36.20
2018-06-15T04:31:28.385Z,36.20
2018-06-15T04:34:03.771Z,36.20
2018-06-15T04:36:39.606Z,36.20
2018-06-15T04:39:13.718Z,36.20
2018-06-15T04:41:47.937Z,36.20
2018-06-15T04:44:23.914Z,36.20
2018-06-15T04:46:57.999Z,36.20
2018-06-15T04:49:32.038Z,36.20
2018-06-15T04:52:06.771Z,36.20
2018-06-15T04:54:40.935Z,36.20
2018-06-15T04:57:15.238Z,36.30
2018-06-15T04:59:50.343Z,36.40
2018-06-15T05:02:25.064Z,36.50
2018-06-15T05:04:59.160Z,36.60
2018-06-15T05:07:33.299Z,36.60
2018-06-15T05:10:07.610Z,36.70
2018-06-15T05:12:41.730Z,36.80
2018-06-15T05:15:15.963Z,36.80
2018-06-15T05:17:50.190Z,36.90
2018-06-15T05:20:23.823Z,37.00
2018-06-15T05:22:58.650Z,37.10
2018-06-15T05:25:34.650Z,37.20
2018-06-15T05:28:10.020Z,37.30
2018-06-15T05:30:49.805Z,37.40
2018-06-15T05:33:24.180Z,37.50
2018-06-15T05:35:58.481Z,37.60
2018-06-15T05:38:34.070Z,37.70
2018-06-15T05:41:08.179Z,37.70
2018-06-15T05:43:42.794Z,37.80
2018-06-15T05:46:17.525Z,37.90
2018-06-15T05:48:52.081Z,37.90
2018-06-15T05:51:27.235Z,38.00
2018-06-15T05:54:07.012Z,38.00
2018-06-15T05:56:40.705Z,38.00
2018-06-15T05:59:15.279Z,38.00
2018-06-15T06:01:51.072Z,38.00
2018-06-15T06:04:27.278Z,38.00
2018-06-15T06:07:01.607Z,38.00
2018-06-15T06:09:35.454Z,38.10
2018-06-15T06:12:10.399Z,38.00
2018-06-15T06:14:44.314Z,38.10
2018-06-15T06:17:20.662Z,38.10
2018-06-15T06:19:54.506Z,38.10
2018-06-15T06:22:28.638Z,38.10
2018-06-15T06:25:02.636Z,38.10
2018-06-15T06:27:38.362Z,38.10
2018-06-15T06:30:12.295Z,38.10
2018-06-15T06:32:50.165Z,38.20
2018-06-15T06:35:24.766Z,38.20
2018-06-15T06:37:58.920Z,38.20
2018-06-15T06:40:33.174Z,38.10
2018-06-15T06:43:08.222Z,38.20
2018-06-15T06:45:42.312Z,38.20
2018-06-15T06:48:17.949Z,38.20
2018-06-15T06:50:51.561Z,38.10
2018-06-15T06:53:25.265Z,38.20
2018-06-15T06:55:59.734Z,38.20
2018-06-15T06:58:33.643Z,38.20
2018-06-15T07:01:08.295Z,38.20
2018-06-15T07:03:42.094Z,38.20
2018-06-15T07:06:16.626Z,38.20
2018-06-15T07:08:50.833Z,38.20
2018-06-15T07:11:24.603Z,38.30
2018-06-15T07:19:34.912Z,38.30
2018-06-15T07:22:08.826Z,38.20
2018-06-15T07:24:42.659Z,38.20
2018-06-15T07:27:16.564Z,38.20
2018-06-15T07:29:50.831Z,38.10
2018-06-15T07:32:25.133Z,38.10
2018-06-15T07:34:59.463Z,38.10
2018-06-15T07:40:06.619Z,38.10
2018-06-15T07:42:40.692Z,38.10
2018-06-15T07:45:16.033Z,38.10
2018-06-15T07:47:50.190Z,38.20
2018-06-15T07:50:26.043Z,38.20
2018-06-15T07:53:00.980Z,38.20
2018-06-15T07:55:37.156Z,38.20
2018-06-15T08:03:18.579Z,38.20
2018-06-15T08:08:25.293Z,38.20
2018-06-15T08:10:59.184Z,38.20
2018-06-15T08:13:34.459Z,38.20
2018-06-15T08:16:09.561Z,38.30
2018-06-15T08:21:16.435Z,38.30
2018-06-15T08:23:51.634Z,38.30
2018-06-15T08:26:26.144Z,38.30
2018-06-15T08:29:00.931Z,38.40
2018-06-15T08:31:34.980Z,38.40
2018-06-15T08:34:08.732Z,38.30
2018-06-15T08:47:15.394Z,38.30
2018-06-15T08:49:49.639Z,38.20
2018-06-15T08:54:57.933Z,37.50
2018-06-15T08:57:33.386Z,37.60
2018-06-15T09:05:25.664Z,37.70
2018-06-15T09:07:59.505Z,37.70
2018-06-15T09:10:33.619Z,37.60
2018-06-15T09:13:08.410Z,37.60
2018-06-15T09:18:14.964Z,37.40
2018-06-15T09:47:13.686Z,37.30
2018-06-15T09:49:47.844Z,37.20
2018-06-15T09:52:21.873Z,35.60
2018-06-15T09:54:57.194Z,35.50
2018-06-15T09:57:31.120Z,35.50
2018-06-15T10:00:05.920Z,35.60
2018-06-15T10:02:39.724Z,35.60
2018-06-15T10:05:13.984Z,35.60
2018-06-15T10:07:47.924Z,35.60
2018-06-15T10:10:22.237Z,35.60
2018-06-15T10:12:56.488Z,35.60
2018-06-15T10:15:31.552Z,35.60
2018-06-15T10:18:05.436Z,35.60
2018-06-15T10:20:40.162Z,35.50
2018-06-15T10:23:15.635Z,35.40
2018-06-15T10:25:50.641Z,35.30
2018-06-15T10:28:25.062Z,35.30
2018-06-15T10:30:59.183Z,35.10
2018-06-15T10:33:33.223Z,35.10
2018-06-15T10:36:07.480Z,35.00
2018-06-15T10:38:41.320Z,34.90
2018-06-15T10:41:17.013Z,34.80
2018-06-15T10:43:51.047Z,34.70
2018-06-15T10:46:25.331Z,34.70
2018-06-15T10:54:04.203Z,34.50
2018-06-15T10:59:12.256Z,34.50
2018-06-15T11:01:46.536Z,34.50
2018-06-15T11:04:21.088Z,34.40
2018-06-15T11:06:55.125Z,34.40
2018-06-15T11:09:28.950Z,34.40
2018-06-15T11:12:04.007Z,34.30
2018-06-15T11:14:37.963Z,34.30
2018-06-15T11:17:12.274Z,34.30
2018-06-15T11:19:46.400Z,34.20
2018-06-15T11:22:22.408Z,34.20
2018-06-15T11:24:56.906Z,34.10
2018-06-15T11:27:31.596Z,34.10
2018-06-15T11:30:06.579Z,34.00
2018-06-15T11:32:40.465Z,34.00
2018-06-15T11:35:14.360Z,33.90
2018-06-15T11:37:48.897Z,33.90
2018-06-15T11:40:22.761Z,33.90
2018-06-15T11:42:57.370Z,33.90
2018-06-15T11:45:31.345Z,33.90
2018-06-15T11:48:06.046Z,33.80
2018-06-15T11:50:39.852Z,33.80
2018-06-15T11:53:13.970Z,33.80
2018-06-15T11:55:48.965Z,33.80
2018-06-15T11:58:25.188Z,33.70
2018-06-15T12:00:59.774Z,33.80
2018-06-15T12:32:50.765Z,33.80
2018-06-15T12:35:24.626Z,33.80
2018-06-15T12:37:58.710Z,32.60
2018-06-15T12:40:33.003Z,32.60
2018-06-15T12:43:07.057Z,32.70
2018-06-15T12:45:41.161Z,32.70
2018-06-15T12:48:15.687Z,32.90
2018-06-15T12:50:51.122Z,33.00
2018-06-15T12:53:25.879Z,33.10
2018-06-15T12:55:59.698Z,33.10
2018-06-15T12:58:34.237Z,33.20
2018-06-15T13:01:08.285Z,33.30
2018-06-15T13:03:42.784Z,33.40
2018-06-15T13:06:16.525Z,33.40
2018-06-15T13:08:50.168Z,33.50
2018-06-15T13:13:56.203Z,33.60
2018-06-15T13:16:30.992Z,33.60
2018-06-15T13:19:05.076Z,33.70
2018-06-15T13:21:38.969Z,33.70
2018-06-15T13:26:46.440Z,33.70
2018-06-15T13:29:21.021Z,33.70
2018-06-15T13:34:27.613Z,33.80
2018-06-15T13:37:01.635Z,33.80
2018-06-15T13:39:36.080Z,33.80
2018-06-15T13:42:11.292Z,33.80
2018-06-15T13:44:45.536Z,33.80
2018-06-15T13:47:19.711Z,33.80
2018-06-15T13:49:54.506Z,33.90
2018-06-15T13:52:28.360Z,33.90
2018-06-15T13:55:02.177Z,33.90
2018-06-15T13:57:36.465Z,33.90
2018-06-15T14:00:11.410Z,33.90
2018-06-15T14:02:45.347Z,33.90
2018-06-15T14:05:19.142Z,33.90
2018-06-15T14:07:54.705Z,33.90
2018-06-15T14:10:28.743Z,33.90
2018-06-15T14:13:02.590Z,33.90
2018-06-15T14:20:42.185Z,33.90
2018-06-15T14:23:16.691Z,33.90
2018-06-15T14:28:23.086Z,33.90
2018-06-15T14:30:57.951Z,33.90
2018-06-15T14:33:32.355Z,33.90
2018-06-15T14:36:07.309Z,33.90
2018-06-15T14:38:41.175Z,33.90
2018-06-15T14:41:15.761Z,33.90
2018-06-15T14:43:49.707Z,33.90
2018-06-15T14:46:23.959Z,33.90
2018-06-15T14:48:58.099Z,33.90
2018-06-15T14:51:32.393Z,33.90
2018-06-15T14:54:07.000Z,33.80
2018-06-15T14:56:41.126Z,33.90
2018-06-15T14:59:15.879Z,33.80
2018-06-15T15:01:51.370Z,33.80
2018-06-15T15:04:26.360Z,33.80
2018-06-15T15:07:00.434Z,33.80
2018-06-15T15:09:36.171Z,33.80
2018-06-15T15:12:10.753Z,33.80
2018-06-15T15:14:46.995Z,33.80
2018-06-15T15:17:21.441Z,33.80
2018-06-15T15:19:57.057Z,33.80
2018-06-15T15:25:04.393Z,33.80
2018-06-15T15:27:38.956Z,33.70
2018-06-15T15:30:13.244Z,33.70
2018-06-15T15:32:47.863Z,33.70
2018-06-15T15:35:22.842Z,33.70
2018-06-15T15:37:58.182Z,33.70
2018-06-15T15:40:32.861Z,33.70
2018-06-15T15:45:39.986Z,33.70
2018-06-15T15:48:14.929Z,33.70
2018-06-15T15:53:21.457Z,33.70
2018-06-15T15:55:55.632Z,33.60
2018-06-15T15:58:29.557Z,33.60
2018-06-15T16:01:04.659Z,33.60
2018-06-15T16:03:39.256Z,33.60
2018-06-15T16:06:13.707Z,33.50
2018-06-15T16:11:21.012Z,33.50
2018-06-15T16:16:27.342Z,33.50
2018-06-15T16:19:00.910Z,33.50
2018-06-15T16:21:34.953Z,33.50
2018-06-15T16:24:08.983Z,33.50
2018-06-15T16:26:43.125Z,33.40
2018-06-15T16:29:17.490Z,33.40
2018-06-15T16:31:51.300Z,33.40
2018-06-15T16:34:25.253Z,33.40
2018-06-15T16:36:58.926Z,33.40
2018-06-15T16:39:33.027Z,33.40
2018-06-15T16:42:07.249Z,33.40
2018-06-15T16:44:41.887Z,33.40
2018-06-15T16:47:15.643Z,33.40
2018-06-15T16:49:49.694Z,33.40
2018-06-15T16:52:23.401Z,33.30
2018-06-15T16:54:57.484Z,33.30
2018-06-15T16:57:31.240Z,33.30
2018-06-15T17:00:05.318Z,33.20
2018-06-15T17:02:40.474Z,33.20
2018-06-15T17:05:16.007Z,33.20
2018-06-15T17:07:49.758Z,33.20
2018-06-15T17:10:24.695Z,33.20
2018-06-15T17:12:58.660Z,33.10
2018-06-15T17:15:32.509Z,33.10
2018-06-15T17:18:06.452Z,33.10
2018-06-15T17:20:41.912Z,33.10
2018-06-15T17:23:16.473Z,33.10
2018-06-15T17:25:50.342Z,33.10
2018-06-15T17:28:25.376Z,33.10
2018-06-15T17:30:59.209Z,33.00
2018-06-15T17:33:33.324Z,33.00
2018-06-15T17:36:07.369Z,33.00
2018-06-15T17:38:41.411Z,33.00
2018-06-15T17:43:47.603Z,33.00
2018-06-15T17:47:15.595Z,33.00
2018-06-15T17:49:49.731Z,33.00
2018-06-15T17:54:57.146Z,33.00
2018-06-15T18:00:03.699Z,32.90
2018-06-15T18:02:37.985Z,32.90
2018-06-15T18:05:12.060Z,32.90
2018-06-15T18:07:46.705Z,32.90
2018-06-15T18:12:53.799Z,32.80
2018-06-15T18:20:32.999Z,32.80
2018-06-15T18:23:08.050Z,32.70
2018-06-15T18:25:41.786Z,32.70
2018-06-15T18:28:15.872Z,32.70
2018-06-15T18:30:51.312Z,32.60
2018-06-15T18:33:25.107Z,32.70
2018-06-15T18:35:59.210Z,32.60
2018-06-15T18:38:34.658Z,32.60
2018-06-15T18:41:08.515Z,32.60
2018-06-15T18:43:43.816Z,32.50
2018-06-15T18:46:18.004Z,32.50
2018-06-15T18:48:53.376Z,32.50
2018-06-15T18:51:27.265Z,32.50
2018-06-15T18:54:01.749Z,32.50
2018-06-15T18:56:35.966Z,32.50
2018-06-15T18:59:10.530Z,32.50
2018-06-15T19:01:44.784Z,32.50
2018-06-15T19:04:19.734Z,32.50
2018-06-15T19:06:53.680Z,32.50
2018-06-15T19:09:28.732Z,32.50
2018-06-15T19:12:02.903Z,32.50
2018-06-15T19:14:36.717Z,32.50
2018-06-15T19:17:10.977Z,32.50
2018-06-15T19:19:46.362Z,32.50
2018-06-15T19:22:22.333Z,32.40
2018-06-15T19:24:56.070Z,32.50
2018-06-15T19:27:30.027Z,32.50
2018-06-15T19:30:04.130Z,32.50
2018-06-15T19:32:38.124Z,32.50
2018-06-15T19:35:12.202Z,32.40
2018-06-15T19:37:46.409Z,32.50
2018-06-15T19:40:21.420Z,32.50
2018-06-15T19:42:56.092Z,32.50
2018-06-15T19:45:30.408Z,32.50
2018-06-15T19:48:04.556Z,32.50
2018-06-15T19:50:38.810Z,32.50
2018-06-15T19:55:45.233Z,32.50
2018-06-15T19:58:19.255Z,32.50
2018-06-15T20:00:54.277Z,32.50
2018-06-15T20:03:28.256Z,32.50
2018-06-15T20:06:02.414Z,32.40
2018-06-15T20:08:36.386Z,32.50
2018-06-15T20:26:45.311Z,32.40
2018-06-15T20:31:52.326Z,31.80
2018-06-15T20:34:26.325Z,31.80
2018-06-15T20:37:00.959Z,31.80
2018-06-15T20:39:34.884Z,31.90
2018-06-15T20:42:08.943Z,31.90
2018-06-15T20:44:43.027Z,32.00
2018-06-15T20:47:17.247Z,32.00
2018-06-15T20:49:51.599Z,32.00
2018-06-15T20:52:26.059Z,32.00
2018-06-15T20:55:00.555Z,32.10
2018-06-15T21:00:08.293Z,32.10
2018-06-15T21:02:42.508Z,32.10
2018-06-15T21:05:16.620Z,32.10
2018-06-15T21:07:50.709Z,32.10
2018-06-15T21:10:24.787Z,32.10
2018-06-15T21:12:59.196Z,32.10
2018-06-15T21:15:33.925Z,32.10
2018-06-15T21:18:08.358Z,32.10
2018-06-15T21:20:42.731Z,32.10
2018-06-15T21:23:17.257Z,32.10
2018-06-15T21:28:25.466Z,32.10
2018-06-15T21:31:02.891Z,32.10
2018-06-15T21:33:37.830Z,32.10
2018-06-15T21:36:12.211Z,32.10
2018-06-15T21:38:47.317Z,32.10
2018-06-15T21:41:21.263Z,32.10
2018-06-15T21:46:27.887Z,32.10
2018-06-15T21:49:02.185Z,32.10
2018-06-15T21:51:36.566Z,32.10
2018-06-15T21:54:10.594Z,32.10
2018-06-15T21:56:44.529Z,32.10
2018-06-15T21:59:18.782Z,32.10
2018-06-15T22:01:52.589Z,32.10
2018-06-15T22:04:27.225Z,32.10
2018-06-15T22:07:01.039Z,32.10
2018-06-15T22:09:35.477Z,32.10
2018-06-15T22:12:09.590Z,32.10
2018-06-15T22:14:44.399Z,32.10
2018-06-15T22:17:18.404Z,32.10
2018-06-15T22:19:52.886Z,32.10
2018-06-15T22:22:27.248Z,32.10
2018-06-15T22:25:01.278Z,32.20
2018-06-15T22:27:35.393Z,32.20
2018-06-15T22:30:09.658Z,32.20
2018-06-15T22:32:43.870Z,32.20
2018-06-15T22:35:19.014Z,32.20
2018-06-15T22:37:53.653Z,32.20
2018-06-15T22:40:27.571Z,32.20
2018-06-15T22:43:01.660Z,32.20
2018-06-15T22:45:35.497Z,32.20
2018-06-15T22:48:09.883Z,32.20
2018-06-15T22:50:43.844Z,32.20
2018-06-15T22:53:17.881Z,32.20
2018-06-15T22:55:52.100Z,32.20
2018-06-15T22:58:26.449Z,32.10
2018-06-15T23:01:01.382Z,32.20
2018-06-15T23:03:35.720Z,32.20
2018-06-15T23:06:09.535Z,32.10
2018-06-15T23:08:43.487Z,32.20
2018-06-15T23:11:17.836Z,32.20
2018-06-15T23:13:52.103Z,32.20
2018-06-15T23:16:27.340Z,32.20
2018-06-15T23:19:01.411Z,32.20
2018-06-15T23:21:35.572Z,32.20
2018-06-15T23:26:42.317Z,32.20
2018-06-15T23:29:16.538Z,32.20
2018-06-15T23:31:50.239Z,32.20
2018-06-15T23:34:24.167Z,32.20
2018-06-15T23:36:58.489Z,32.30
2018-06-15T23:39:32.339Z,32.30
2018-06-15T23:42:06.134Z,32.20
2018-06-15T23:44:39.988Z,32.30
2018-06-15T23:47:13.977Z,32.30
2018-06-15T23:52:20.608Z,32.30
2018-06-15T23:54:55.013Z,32.30
2018-06-15T23:57:29.227Z,32.30
